sensor_id;sensor_type;location;lat;lon;timestamp;P1;durP1;ratioP1;P2;durP2;ratioP2
12788;SDS011;6458;42.710;23.192;2023-02-28T00:01:55;0.70;;;0.70;;
12788;SDS011;6458;42.710;23.192;2023-02-28T00:04:22;0.77;;;0.77;;
12788;SDS011;6458;42.710;23.192;2023-02-28T00:06:49;0.60;;;0.60;;
12788;SDS011;6458;42.710;23.192;2023-02-28T00:09:18;0.70;;;0.70;;
12788;SDS011;6458;42.710;23.192;2023-02-28T00:11:52;0.80;;;0.80;;
12788;SDS011;6458;42.710;23.192;2023-02-28T00:14:23;0.70;;;0.70;;
12788;SDS011;6458;42.710;23.192;2023-02-28T00:16:52;0.70;;;0.70;;
12788;SDS011;6458;42.710;23.192;2023-02-28T00:19:19;0.80;;;0.80;;
12788;SDS011;6458;42.710;23.192;2023-02-28T00:21:46;0.80;;;0.80;;
12788;SDS011;6458;42.710;23.192;2023-02-28T00:24:13;0.80;;;0.80;;
12788;SDS011;6458;42.710;23.192;2023-02-28T00:26:39;0.70;;;0.70;;
12788;SDS011;6458;42.710;23.192;2023-02-28T00:29:06;0.80;;;0.80;;
12788;SDS011;6458;42.710;23.192;2023-02-28T00:31:35;0.70;;;0.70;;
12788;SDS011;6458;42.710;23.192;2023-02-28T00:34:06;0.70;;;0.70;;
12788;SDS011;6458;42.710;23.192;2023-02-28T00:36:35;0.80;;;0.80;;
12788;SDS011;6458;42.710;23.192;2023-02-28T00:39:06;0.70;;;0.70;;
12788;SDS011;6458;42.710;23.192;2023-02-28T00:41:34;0.70;;;0.70;;
12788;SDS011;6458;42.710;23.192;2023-02-28T00:44:03;0.70;;;0.70;;
12788;SDS011;6458;42.710;23.192;2023-02-28T00:46:30;0.63;;;0.63;;
12788;SDS011;6458;42.710;23.192;2023-02-28T00:49:02;9.40;;;9.00;;
12788;SDS011;6458;42.710;23.192;2023-02-28T00:51:31;0.80;;;0.80;;
12788;SDS011;6458;42.710;23.192;2023-02-28T00:53:58;0.80;;;0.80;;
12788;SDS011;6458;42.710;23.192;2023-02-28T00:56:25;0.70;;;0.70;;
12788;SDS011;6458;42.710;23.192;2023-02-28T00:58:52;0.90;;;0.90;;
12788;SDS011;6458;42.710;23.192;2023-02-28T01:01:19;0.80;;;0.80;;
12788;SDS011;6458;42.710;23.192;2023-02-28T01:03:48;0.90;;;0.90;;
12788;SDS011;6458;42.710;23.192;2023-02-28T01:06:18;0.80;;;0.80;;
12788;SDS011;6458;42.710;23.192;2023-02-28T01:08:45;0.83;;;0.83;;
12788;SDS011;6458;42.710;23.192;2023-02-28T01:11:16;0.87;;;0.87;;
12788;SDS011;6458;42.710;23.192;2023-02-28T01:13:48;0.80;;;0.80;;
12788;SDS011;6458;42.710;23.192;2023-02-28T01:16:19;0.80;;;0.80;;
12788;SDS011;6458;42.710;23.192;2023-02-28T01:19:07;0.80;;;0.80;;
12788;SDS011;6458;42.710;23.192;2023-02-28T01:21:44;0.70;;;0.70;;
12788;SDS011;6458;42.710;23.192;2023-02-28T01:24:14;0.70;;;0.70;;
12788;SDS011;6458;42.710;23.192;2023-02-28T01:26:43;0.80;;;0.80;;
12788;SDS011;6458;42.710;23.192;2023-02-28T01:29:12;0.80;;;0.80;;
12788;SDS011;6458;42.710;23.192;2023-02-28T01:31:41;0.83;;;0.83;;
12788;SDS011;6458;42.710;23.192;2023-02-28T01:34:14;0.70;;;0.70;;
12788;SDS011;6458;42.710;23.192;2023-02-28T01:36:43;0.90;;;0.90;;
12788;SDS011;6458;42.710;23.192;2023-02-28T01:39:18;0.77;;;0.77;;
12788;SDS011;6458;42.710;23.192;2023-02-28T01:41:48;0.80;;;0.80;;
12788;SDS011;6458;42.710;23.192;2023-02-28T01:47:04;0.80;;;0.80;;
12788;SDS011;6458;42.710;23.192;2023-02-28T01:49:34;0.80;;;0.80;;
12788;SDS011;6458;42.710;23.192;2023-02-28T01:52:03;0.80;;;0.80;;
12788;SDS011;6458;42.710;23.192;2023-02-28T01:54:35;0.80;;;0.80;;
12788;SDS011;6458;42.710;23.192;2023-02-28T01:57:07;0.80;;;0.80;;
12788;SDS011;6458;42.710;23.192;2023-02-28T01:59:39;0.90;;;0.90;;
12788;SDS011;6458;42.710;23.192;2023-02-28T02:02:13;0.80;;;0.80;;
12788;SDS011;6458;42.710;23.192;2023-02-28T02:04:46;0.87;;;0.87;;
12788;SDS011;6458;42.710;23.192;2023-02-28T02:07:23;0.90;;;0.90;;
12788;SDS011;6458;42.710;23.192;2023-02-28T02:10:02;0.90;;;0.90;;
12788;SDS011;6458;42.710;23.192;2023-02-28T02:12:32;0.80;;;0.80;;
12788;SDS011;6458;42.710;23.192;2023-02-28T02:15:05;0.70;;;0.70;;
12788;SDS011;6458;42.710;23.192;2023-02-28T02:17:39;0.90;;;0.90;;
12788;SDS011;6458;42.710;23.192;2023-02-28T02:25:48;0.90;;;0.90;;
12788;SDS011;6458;42.710;23.192;2023-02-28T02:31:26;0.77;;;0.77;;
12788;SDS011;6458;42.710;23.192;2023-02-28T02:36:45;0.83;;;0.83;;
12788;SDS011;6458;42.710;23.192;2023-02-28T02:39:17;1.00;;;1.00;;
12788;SDS011;6458;42.710;23.192;2023-02-28T02:41:49;0.70;;;0.70;;
12788;SDS011;6458;42.710;23.192;2023-02-28T02:44:22;0.80;;;0.80;;
12788;SDS011;6458;42.710;23.192;2023-02-28T02:46:51;0.90;;;0.90;;
12788;SDS011;6458;42.710;23.192;2023-02-28T02:49:21;0.93;;;0.93;;
12788;SDS011;6458;42.710;23.192;2023-02-28T02:51:52;0.87;;;0.87;;
12788;SDS011;6458;42.710;23.192;2023-02-28T02:54:21;0.90;;;0.90;;
12788;SDS011;6458;42.710;23.192;2023-02-28T02:56:49;0.90;;;0.90;;
12788;SDS011;6458;42.710;23.192;2023-02-28T02:59:18;0.83;;;0.83;;
12788;SDS011;6458;42.710;23.192;2023-02-28T03:01:47;1.00;;;1.00;;
12788;SDS011;6458;42.710;23.192;2023-02-28T03:04:18;0.70;;;0.70;;
12788;SDS011;6458;42.710;23.192;2023-02-28T03:06:46;0.80;;;0.80;;
12788;SDS011;6458;42.710;23.192;2023-02-28T03:09:15;1.00;;;1.00;;
12788;SDS011;6458;42.710;23.192;2023-02-28T03:11:42;0.90;;;0.90;;
12788;SDS011;6458;42.710;23.192;2023-02-28T03:14:18;0.90;;;0.90;;
12788;SDS011;6458;42.710;23.192;2023-02-28T03:16:58;0.87;;;0.87;;
12788;SDS011;6458;42.710;23.192;2023-02-28T03:19:34;0.93;;;0.93;;
12788;SDS011;6458;42.710;23.192;2023-02-28T03:22:14;0.77;;;0.77;;
12788;SDS011;6458;42.710;23.192;2023-02-28T03:24:49;0.80;;;0.80;;
12788;SDS011;6458;42.710;23.192;2023-02-28T03:27:20;0.90;;;0.90;;
12788;SDS011;6458;42.710;23.192;2023-02-28T03:29:54;0.70;;;0.70;;
12788;SDS011;6458;42.710;23.192;2023-02-28T03:32:29;0.93;;;0.93;;
12788;SDS011;6458;42.710;23.192;2023-02-28T03:35:06;0.80;;;0.80;;
12788;SDS011;6458;42.710;23.192;2023-02-28T03:37:45;0.90;;;0.90;;
12788;SDS011;6458;42.710;23.192;2023-02-28T03:42:52;0.80;;;0.80;;
12788;SDS011;6458;42.710;23.192;2023-02-28T03:45:28;0.80;;;0.80;;
12788;SDS011;6458;42.710;23.192;2023-02-28T03:48:15;0.80;;;0.80;;
12788;SDS011;6458;42.710;23.192;2023-02-28T03:50:46;0.83;;;0.83;;
12788;SDS011;6458;42.710;23.192;2023-02-28T03:53:18;0.70;;;0.70;;
12788;SDS011;6458;42.710;23.192;2023-02-28T03:55:54;0.90;;;0.90;;
12788;SDS011;6458;42.710;23.192;2023-02-28T03:58:26;0.90;;;0.90;;
12788;SDS011;6458;42.710;23.192;2023-02-28T04:00:57;0.90;;;0.90;;
12788;SDS011;6458;42.710;23.192;2023-02-28T04:03:32;0.80;;;0.80;;
12788;SDS011;6458;42.710;23.192;2023-02-28T04:06:04;0.80;;;0.80;;
12788;SDS011;6458;42.710;23.192;2023-02-28T04:08:32;0.90;;;0.90;;
12788;SDS011;6458;42.710;23.192;2023-02-28T04:11:01;0.77;;;0.77;;
12788;SDS011;6458;42.710;23.192;2023-02-28T04:13:31;0.63;;;0.63;;
12788;SDS011;6458;42.710;23.192;2023-02-28T04:15:58;1.00;;;1.00;;
12788;SDS011;6458;42.710;23.192;2023-02-28T04:18:25;0.80;;;0.80;;
12788;SDS011;6458;42.710;23.192;2023-02-28T04:20:59;0.90;;;0.90;;
12788;SDS011;6458;42.710;23.192;2023-02-28T04:23:26;1.00;;;1.00;;
12788;SDS011;6458;42.710;23.192;2023-02-28T04:25:54;0.80;;;0.80;;
12788;SDS011;6458;42.710;23.192;2023-02-28T04:28:26;0.80;;;0.80;;
12788;SDS011;6458;42.710;23.192;2023-02-28T04:30:56;0.90;;;0.90;;
12788;SDS011;6458;42.710;23.192;2023-02-28T04:33:24;0.90;;;0.90;;
12788;SDS011;6458;42.710;23.192;2023-02-28T04:35:57;0.90;;;0.90;;
12788;SDS011;6458;42.710;23.192;2023-02-28T04:38:25;0.80;;;0.80;;
12788;SDS011;6458;42.710;23.192;2023-02-28T04:40:52;0.90;;;0.90;;
12788;SDS011;6458;42.710;23.192;2023-02-28T04:45:51;0.80;;;0.80;;
12788;SDS011;6458;42.710;23.192;2023-02-28T04:48:27;0.80;;;0.80;;
12788;SDS011;6458;42.710;23.192;2023-02-28T04:53:33;0.90;;;0.90;;
12788;SDS011;6458;42.710;23.192;2023-02-28T04:56:10;0.90;;;0.90;;
12788;SDS011;6458;42.710;23.192;2023-02-28T04:58:48;0.60;;;0.60;;
12788;SDS011;6458;42.710;23.192;2023-02-28T05:01:26;0.90;;;0.90;;
12788;SDS011;6458;42.710;23.192;2023-02-28T05:04:03;0.70;;;0.70;;
12788;SDS011;6458;42.710;23.192;2023-02-28T05:06:37;0.80;;;0.80;;
12788;SDS011;6458;42.710;23.192;2023-02-28T05:09:05;0.80;;;0.80;;
12788;SDS011;6458;42.710;23.192;2023-02-28T05:11:34;0.80;;;0.80;;
12788;SDS011;6458;42.710;23.192;2023-02-28T05:14:12;0.90;;;0.90;;
12788;SDS011;6458;42.710;23.192;2023-02-28T05:19:36;0.80;;;0.80;;
12788;SDS011;6458;42.710;23.192;2023-02-28T05:22:11;0.70;;;0.70;;
12788;SDS011;6458;42.710;23.192;2023-02-28T05:24:42;0.90;;;0.90;;
12788;SDS011;6458;42.710;23.192;2023-02-28T05:27:30;0.80;;;0.80;;
12788;SDS011;6458;42.710;23.192;2023-02-28T05:30:07;0.80;;;0.80;;
12788;SDS011;6458;42.710;23.192;2023-02-28T05:32:44;0.80;;;0.80;;
12788;SDS011;6458;42.710;23.192;2023-02-28T05:35:30;0.80;;;0.80;;
12788;SDS011;6458;42.710;23.192;2023-02-28T05:38:00;0.93;;;0.93;;
12788;SDS011;6458;42.710;23.192;2023-02-28T05:40:37;0.70;;;0.70;;
12788;SDS011;6458;42.710;23.192;2023-02-28T05:43:15;0.73;;;0.73;;
12788;SDS011;6458;42.710;23.192;2023-02-28T05:45:50;0.80;;;0.80;;
12788;SDS011;6458;42.710;23.192;2023-02-28T05:48:26;0.70;;;0.70;;
12788;SDS011;6458;42.710;23.192;2023-02-28T05:51:07;0.80;;;0.80;;
12788;SDS011;6458;42.710;23.192;2023-02-28T05:53:38;0.80;;;0.80;;
12788;SDS011;6458;42.710;23.192;2023-02-28T05:56:16;0.90;;;0.90;;
12788;SDS011;6458;42.710;23.192;2023-02-28T05:58:48;0.90;;;0.90;;
12788;SDS011;6458;42.710;23.192;2023-02-28T06:01:23;1.00;;;1.00;;
12788;SDS011;6458;42.710;23.192;2023-02-28T06:04:10;0.80;;;0.80;;
12788;SDS011;6458;42.710;23.192;2023-02-28T06:06:42;0.80;;;0.80;;
12788;SDS011;6458;42.710;23.192;2023-02-28T06:09:16;0.80;;;0.80;;
12788;SDS011;6458;42.710;23.192;2023-02-28T06:11:46;0.90;;;0.90;;
12788;SDS011;6458;42.710;23.192;2023-02-28T06:14:14;0.90;;;0.90;;
12788;SDS011;6458;42.710;23.192;2023-02-28T06:16:41;0.80;;;0.80;;
12788;SDS011;6458;42.710;23.192;2023-02-28T06:19:08;1.00;;;1.00;;
12788;SDS011;6458;42.710;23.192;2023-02-28T06:21:38;0.77;;;0.77;;
12788;SDS011;6458;42.710;23.192;2023-02-28T06:24:12;0.90;;;0.90;;
12788;SDS011;6458;42.710;23.192;2023-02-28T06:26:42;0.90;;;0.90;;
12788;SDS011;6458;42.710;23.192;2023-02-28T06:29:11;0.77;;;0.77;;
12788;SDS011;6458;42.710;23.192;2023-02-28T06:31:43;0.90;;;0.90;;
12788;SDS011;6458;42.710;23.192;2023-02-28T06:34:10;0.90;;;0.90;;
12788;SDS011;6458;42.710;23.192;2023-02-28T06:36:38;0.90;;;0.90;;
12788;SDS011;6458;42.710;23.192;2023-02-28T06:39:05;0.80;;;0.80;;
12788;SDS011;6458;42.710;23.192;2023-02-28T06:41:34;0.90;;;0.90;;
12788;SDS011;6458;42.710;23.192;2023-02-28T06:44:03;0.80;;;0.80;;
12788;SDS011;6458;42.710;23.192;2023-02-28T06:46:30;0.90;;;0.90;;
12788;SDS011;6458;42.710;23.192;2023-02-28T06:48:57;0.80;;;0.80;;
12788;SDS011;6458;42.710;23.192;2023-02-28T06:51:27;0.80;;;0.80;;
12788;SDS011;6458;42.710;23.192;2023-02-28T06:53:57;0.87;;;0.87;;
12788;SDS011;6458;42.710;23.192;2023-02-28T06:56:24;0.90;;;0.90;;
12788;SDS011;6458;42.710;23.192;2023-02-28T06:59:00;0.73;;;0.73;;
12788;SDS011;6458;42.710;23.192;2023-02-28T07:01:34;0.90;;;0.90;;
12788;SDS011;6458;42.710;23.192;2023-02-28T07:04:08;0.90;;;0.90;;
12788;SDS011;6458;42.710;23.192;2023-02-28T07:53:20;0.90;;;0.90;;
12788;SDS011;6458;42.710;23.192;2023-02-28T07:55:58;1.13;;;1.13;;
12788;SDS011;6458;42.710;23.192;2023-02-28T07:58:46;0.80;;;0.80;;
12788;SDS011;6458;42.710;23.192;2023-02-28T08:01:34;0.97;;;0.97;;
12788;SDS011;6458;42.710;23.192;2023-02-28T08:04:19;0.80;;;0.80;;
12788;SDS011;6458;42.710;23.192;2023-02-28T08:07:00;0.80;;;0.80;;
12788;SDS011;6458;42.710;23.192;2023-02-28T08:14:44;0.80;;;0.80;;
12788;SDS011;6458;42.710;23.192;2023-02-28T08:17:21;0.80;;;0.80;;
12788;SDS011;6458;42.710;23.192;2023-02-28T08:30:35;0.80;;;0.80;;
12788;SDS011;6458;42.710;23.192;2023-02-28T08:33:11;0.90;;;0.90;;
12788;SDS011;6458;42.710;23.192;2023-02-28T11:32:39;0.67;;;0.67;;
12788;SDS011;6458;42.710;23.192;2023-02-28T11:35:21;1.20;;;1.10;;
12788;SDS011;6458;42.710;23.192;2023-02-28T11:37:53;0.60;;;0.60;;
12788;SDS011;6458;42.710;23.192;2023-02-28T11:40:24;0.67;;;0.67;;
12788;SDS011;6458;42.710;23.192;2023-02-28T11:43:04;0.80;;;0.80;;
12788;SDS011;6458;42.710;23.192;2023-02-28T11:45:48;0.90;;;0.90;;
12788;SDS011;6458;42.710;23.192;2023-02-28T11:48:26;0.70;;;0.70;;
12788;SDS011;6458;42.710;23.192;2023-02-28T11:51:03;1.43;;;1.43;;
12788;SDS011;6458;42.710;23.192;2023-02-28T11:53:45;1.90;;;1.37;;
12788;SDS011;6458;42.710;23.192;2023-02-28T11:56:21;0.93;;;0.93;;
12788;SDS011;6458;42.710;23.192;2023-02-28T11:58:59;1.00;;;1.00;;
12788;SDS011;6458;42.710;23.192;2023-02-28T12:01:47;0.77;;;0.77;;
12788;SDS011;6458;42.710;23.192;2023-02-28T12:04:35;0.90;;;0.90;;
12788;SDS011;6458;42.710;23.192;2023-02-28T12:07:24;0.70;;;0.70;;
12788;SDS011;6458;42.710;23.192;2023-02-28T12:10:03;1.63;;;1.63;;
12788;SDS011;6458;42.710;23.192;2023-02-28T12:12:41;0.80;;;0.80;;
12788;SDS011;6458;42.710;23.192;2023-02-28T12:18:09;0.80;;;0.80;;
12788;SDS011;6458;42.710;23.192;2023-02-28T12:21:10;0.70;;;0.70;;
12788;SDS011;6458;42.710;23.192;2023-02-28T12:23:59;1.80;;;1.57;;
12788;SDS011;6458;42.710;23.192;2023-02-28T12:26:34;0.80;;;0.80;;
12788;SDS011;6458;42.710;23.192;2023-02-28T12:29:12;0.77;;;0.77;;
12788;SDS011;6458;42.710;23.192;2023-02-28T12:31:54;32.00;;;14.80;;
12788;SDS011;6458;42.710;23.192;2023-02-28T12:34:31;25.90;;;14.63;;
12788;SDS011;6458;42.710;23.192;2023-02-28T12:37:10;25.67;;;13.97;;
12788;SDS011;6458;42.710;23.192;2023-02-28T12:39:43;23.03;;;13.83;;
12788;SDS011;6458;42.710;23.192;2023-02-28T12:42:14;25.30;;;12.43;;
12788;SDS011;6458;42.710;23.192;2023-02-28T12:44:54;24.13;;;12.90;;
12788;SDS011;6458;42.710;23.192;2023-02-28T12:47:28;21.17;;;12.50;;
12788;SDS011;6458;42.710;23.192;2023-02-28T12:49:56;16.80;;;11.17;;
12788;SDS011;6458;42.710;23.192;2023-02-28T12:52:28;22.53;;;11.93;;
12788;SDS011;6458;42.710;23.192;2023-02-28T12:54:59;24.97;;;12.90;;
12788;SDS011;6458;42.710;23.192;2023-02-28T12:57:28;17.67;;;11.50;;
12788;SDS011;6458;42.710;23.192;2023-02-28T12:59:58;19.57;;;11.83;;
12788;SDS011;6458;42.710;23.192;2023-02-28T13:02:43;17.50;;;10.67;;
12788;SDS011;6458;42.710;23.192;2023-02-28T13:05:17;20.67;;;11.97;;
12788;SDS011;6458;42.710;23.192;2023-02-28T13:10:42;20.43;;;11.27;;
12788;SDS011;6458;42.710;23.192;2023-02-28T13:13:13;19.37;;;10.73;;
12788;SDS011;6458;42.710;23.192;2023-02-28T13:15:41;26.60;;;13.33;;
12788;SDS011;6458;42.710;23.192;2023-02-28T13:18:26;20.80;;;12.00;;
12788;SDS011;6458;42.710;23.192;2023-02-28T13:20:54;20.27;;;10.83;;
12788;SDS011;6458;42.710;23.192;2023-02-28T13:23:40;25.10;;;11.93;;
12788;SDS011;6458;42.710;23.192;2023-02-28T13:26:23;18.60;;;10.50;;
12788;SDS011;6458;42.710;23.192;2023-02-28T13:29:27;19.47;;;11.30;;
12788;SDS011;6458;42.710;23.192;2023-02-28T13:34:41;18.13;;;10.47;;
12788;SDS011;6458;42.710;23.192;2023-02-28T13:39:54;20.47;;;10.83;;
12788;SDS011;6458;42.710;23.192;2023-02-28T13:42:31;24.07;;;11.07;;
12788;SDS011;6458;42.710;23.192;2023-02-28T13:47:45;23.73;;;10.83;;
12788;SDS011;6458;42.710;23.192;2023-02-28T13:50:21;27.43;;;10.03;;
12788;SDS011;6458;42.710;23.192;2023-02-28T13:52:52;24.90;;;10.43;;
12788;SDS011;6458;42.710;23.192;2023-02-28T13:55:23;18.17;;;9.63;;
12788;SDS011;6458;42.710;23.192;2023-02-28T13:58:00;20.77;;;10.80;;
12788;SDS011;6458;42.710;23.192;2023-02-28T14:00:36;19.53;;;10.53;;
12788;SDS011;6458;42.710;23.192;2023-02-28T14:03:20;17.70;;;10.57;;
12788;SDS011;6458;42.710;23.192;2023-02-28T14:08:32;18.77;;;9.20;;
12788;SDS011;6458;42.710;23.192;2023-02-28T14:11:02;20.97;;;9.83;;
12788;SDS011;6458;42.710;23.192;2023-02-28T14:13:44;24.87;;;10.63;;
12788;SDS011;6458;42.710;23.192;2023-02-28T14:16:13;14.57;;;7.97;;
12788;SDS011;6458;42.710;23.192;2023-02-28T14:18:40;21.20;;;9.17;;
12788;SDS011;6458;42.710;23.192;2023-02-28T14:21:09;20.70;;;8.40;;
12788;SDS011;6458;42.710;23.192;2023-02-28T14:23:43;12.47;;;7.67;;
12788;SDS011;6458;42.710;23.192;2023-02-28T14:26:14;15.33;;;7.90;;
12788;SDS011;6458;42.710;23.192;2023-02-28T14:28:54;18.43;;;8.53;;
12788;SDS011;6458;42.710;23.192;2023-02-28T14:31:28;12.60;;;7.77;;
12788;SDS011;6458;42.710;23.192;2023-02-28T14:34:12;22.17;;;9.57;;
12788;SDS011;6458;42.710;23.192;2023-02-28T14:36:43;16.97;;;8.50;;
12788;SDS011;6458;42.710;23.192;2023-02-28T14:39:11;20.53;;;9.10;;
12788;SDS011;6458;42.710;23.192;2023-02-28T14:41:39;18.67;;;8.73;;
12788;SDS011;6458;42.710;23.192;2023-02-28T14:44:15;14.00;;;8.30;;
12788;SDS011;6458;42.710;23.192;2023-02-28T14:46:42;14.10;;;8.50;;
12788;SDS011;6458;42.710;23.192;2023-02-28T14:49:12;19.30;;;9.67;;
12788;SDS011;6458;42.710;23.192;2023-02-28T14:51:39;13.00;;;8.17;;
12788;SDS011;6458;42.710;23.192;2023-02-28T14:54:06;14.77;;;8.73;;
12788;SDS011;6458;42.710;23.192;2023-02-28T14:56:34;15.70;;;9.80;;
12788;SDS011;6458;42.710;23.192;2023-02-28T14:59:02;15.33;;;8.17;;
12788;SDS011;6458;42.710;23.192;2023-02-28T15:01:31;12.53;;;8.23;;
12788;SDS011;6458;42.710;23.192;2023-02-28T15:03:59;15.13;;;9.30;;
12788;SDS011;6458;42.710;23.192;2023-02-28T15:06:28;15.27;;;8.47;;
12788;SDS011;6458;42.710;23.192;2023-02-28T15:09:07;12.70;;;7.93;;
12788;SDS011;6458;42.710;23.192;2023-02-28T15:11:34;18.47;;;8.93;;
12788;SDS011;6458;42.710;23.192;2023-02-28T15:14:01;16.73;;;9.67;;
12788;SDS011;6458;42.710;23.192;2023-02-28T15:16:31;15.40;;;8.77;;
12788;SDS011;6458;42.710;23.192;2023-02-28T15:19:02;15.40;;;9.37;;
12788;SDS011;6458;42.710;23.192;2023-02-28T15:21:31;19.20;;;9.60;;
12788;SDS011;6458;42.710;23.192;2023-02-28T15:23:59;16.30;;;9.00;;
12788;SDS011;6458;42.710;23.192;2023-02-28T15:26:28;16.77;;;9.67;;
12788;SDS011;6458;42.710;23.192;2023-02-28T15:28:57;16.37;;;10.47;;
12788;SDS011;6458;42.710;23.192;2023-02-28T15:31:26;19.27;;;10.47;;
12788;SDS011;6458;42.710;23.192;2023-02-28T15:33:55;13.67;;;8.80;;
12788;SDS011;6458;42.710;23.192;2023-02-28T15:36:24;16.00;;;9.63;;
12788;SDS011;6458;42.710;23.192;2023-02-28T15:38:52;15.77;;;8.50;;
12788;SDS011;6458;42.710;23.192;2023-02-28T15:41:26;15.13;;;8.77;;
12788;SDS011;6458;42.710;23.192;2023-02-28T15:46:38;19.80;;;11.33;;
12788;SDS011;6458;42.710;23.192;2023-02-28T15:49:13;20.93;;;11.47;;
12788;SDS011;6458;42.710;23.192;2023-02-28T15:51:43;19.87;;;11.33;;
12788;SDS011;6458;42.710;23.192;2023-02-28T15:54:12;18.70;;;9.83;;
12788;SDS011;6458;42.710;23.192;2023-02-28T15:56:42;16.57;;;10.83;;
12788;SDS011;6458;42.710;23.192;2023-02-28T15:59:13;20.90;;;9.87;;
12788;SDS011;6458;42.710;23.192;2023-02-28T16:01:41;13.27;;;6.90;;
12788;SDS011;6458;42.710;23.192;2023-02-28T16:04:13;9.80;;;7.67;;
12788;SDS011;6458;42.710;23.192;2023-02-28T16:06:42;12.93;;;7.83;;
12788;SDS011;6458;42.710;23.192;2023-02-28T16:09:10;13.17;;;8.43;;
12788;SDS011;6458;42.710;23.192;2023-02-28T16:11:39;11.97;;;8.00;;
12788;SDS011;6458;42.710;23.192;2023-02-28T16:14:14;12.67;;;6.87;;
12788;SDS011;6458;42.710;23.192;2023-02-28T16:16:41;11.33;;;7.57;;
12788;SDS011;6458;42.710;23.192;2023-02-28T16:19:08;11.97;;;6.83;;
12788;SDS011;6458;42.710;23.192;2023-02-28T16:21:35;7.57;;;6.53;;
12788;SDS011;6458;42.710;23.192;2023-02-28T16:24:04;9.17;;;6.50;;
12788;SDS011;6458;42.710;23.192;2023-02-28T16:26:31;9.70;;;6.70;;
12788;SDS011;6458;42.710;23.192;2023-02-28T16:28:59;12.10;;;7.87;;
12788;SDS011;6458;42.710;23.192;2023-02-28T16:31:27;9.20;;;7.40;;
12788;SDS011;6458;42.710;23.192;2023-02-28T16:33:54;13.57;;;8.10;;
12788;SDS011;6458;42.710;23.192;2023-02-28T16:36:22;10.20;;;7.30;;
12788;SDS011;6458;42.710;23.192;2023-02-28T16:38:50;7.67;;;5.60;;
12788;SDS011;6458;42.710;23.192;2023-02-28T16:41:19;10.87;;;6.27;;
12788;SDS011;6458;42.710;23.192;2023-02-28T16:43:47;11.03;;;6.90;;
12788;SDS011;6458;42.710;23.192;2023-02-28T16:46:14;12.30;;;7.13;;
12788;SDS011;6458;42.710;23.192;2023-02-28T16:48:41;9.47;;;7.43;;
12788;SDS011;6458;42.710;23.192;2023-02-28T16:51:11;13.27;;;8.43;;
12788;SDS011;6458;42.710;23.192;2023-02-28T16:53:38;17.23;;;8.27;;
12788;SDS011;6458;42.710;23.192;2023-02-28T16:56:05;18.80;;;9.97;;
12788;SDS011;6458;42.710;23.192;2023-02-28T16:58:34;8.73;;;6.77;;
12788;SDS011;6458;42.710;23.192;2023-02-28T17:01:01;13.57;;;7.37;;
12788;SDS011;6458;42.710;23.192;2023-02-28T17:03:28;8.10;;;5.67;;
12788;SDS011;6458;42.710;23.192;2023-02-28T17:05:55;7.83;;;6.83;;
12788;SDS011;6458;42.710;23.192;2023-02-28T17:08:22;9.67;;;6.27;;
12788;SDS011;6458;42.710;23.192;2023-02-28T17:10:56;12.17;;;8.50;;
12788;SDS011;6458;42.710;23.192;2023-02-28T17:13:23;11.17;;;7.63;;
12788;SDS011;6458;42.710;23.192;2023-02-28T17:15:53;11.07;;;7.80;;
12788;SDS011;6458;42.710;23.192;2023-02-28T17:18:25;10.67;;;7.67;;
12788;SDS011;6458;42.710;23.192;2023-02-28T17:20:56;9.07;;;6.57;;
12788;SDS011;6458;42.710;23.192;2023-02-28T17:23:25;8.77;;;7.13;;
12788;SDS011;6458;42.710;23.192;2023-02-28T17:25:54;11.20;;;7.63;;
12788;SDS011;6458;42.710;23.192;2023-02-28T17:28:22;9.03;;;6.30;;
12788;SDS011;6458;42.710;23.192;2023-02-28T17:30:51;10.60;;;6.90;;
12788;SDS011;6458;42.710;23.192;2023-02-28T17:33:20;14.53;;;6.93;;
12788;SDS011;6458;42.710;23.192;2023-02-28T17:35:50;9.20;;;5.40;;
12788;SDS011;6458;42.710;23.192;2023-02-28T17:38:18;8.93;;;5.93;;
12788;SDS011;6458;42.710;23.192;2023-02-28T17:40:47;7.20;;;5.90;;
12788;SDS011;6458;42.710;23.192;2023-02-28T17:43:14;8.10;;;4.73;;
12788;SDS011;6458;42.710;23.192;2023-02-28T17:45:41;5.40;;;4.90;;
12788;SDS011;6458;42.710;23.192;2023-02-28T17:48:09;9.37;;;5.40;;
12788;SDS011;6458;42.710;23.192;2023-02-28T17:50:37;5.87;;;5.37;;
12788;SDS011;6458;42.710;23.192;2023-02-28T17:53:04;6.20;;;5.37;;
12788;SDS011;6458;42.710;23.192;2023-02-28T17:55:30;9.70;;;6.90;;
12788;SDS011;6458;42.710;23.192;2023-02-28T17:57:58;7.43;;;6.43;;
12788;SDS011;6458;42.710;23.192;2023-02-28T18:00:25;10.80;;;6.37;;
12788;SDS011;6458;42.710;23.192;2023-02-28T18:02:52;9.27;;;5.67;;
12788;SDS011;6458;42.710;23.192;2023-02-28T18:05:19;9.43;;;6.70;;
12788;SDS011;6458;42.710;23.192;2023-02-28T18:07:47;11.00;;;5.37;;
12788;SDS011;6458;42.710;23.192;2023-02-28T18:10:14;9.70;;;5.70;;
12788;SDS011;6458;42.710;23.192;2023-02-28T18:12:44;6.27;;;5.20;;
12788;SDS011;6458;42.710;23.192;2023-02-28T18:15:11;7.17;;;6.47;;
12788;SDS011;6458;42.710;23.192;2023-02-28T18:17:38;8.60;;;5.37;;
12788;SDS011;6458;42.710;23.192;2023-02-28T18:20:05;4.67;;;4.27;;
12788;SDS011;6458;42.710;23.192;2023-02-28T18:22:32;5.00;;;4.60;;
12788;SDS011;6458;42.710;23.192;2023-02-28T18:31:18;5.53;;;5.13;;
12788;SDS011;6458;42.710;23.192;2023-02-28T18:33:46;4.90;;;4.50;;
12788;SDS011;6458;42.710;23.192;2023-02-28T18:36:13;8.07;;;5.33;;
12788;SDS011;6458;42.710;23.192;2023-02-28T18:38:40;6.57;;;5.87;;
12788;SDS011;6458;42.710;23.192;2023-02-28T18:41:38;6.17;;;5.57;;
12788;SDS011;6458;42.710;23.192;2023-02-28T18:44:20;5.77;;;5.27;;
12788;SDS011;6458;42.710;23.192;2023-02-28T18:46:48;5.47;;;4.97;;
12788;SDS011;6458;42.710;23.192;2023-02-28T18:49:15;6.10;;;5.53;;
12788;SDS011;6458;42.710;23.192;2023-02-28T18:51:42;8.77;;;6.47;;
12788;SDS011;6458;42.710;23.192;2023-02-28T18:54:10;4.90;;;4.43;;
12788;SDS011;6458;42.710;23.192;2023-02-28T18:56:37;7.67;;;6.57;;
12788;SDS011;6458;42.710;23.192;2023-02-28T18:59:04;6.27;;;5.30;;
12788;SDS011;6458;42.710;23.192;2023-02-28T19:01:31;7.53;;;6.57;;
12788;SDS011;6458;42.710;23.192;2023-02-28T19:04:00;7.63;;;6.50;;
12788;SDS011;6458;42.710;23.192;2023-02-28T19:06:27;6.40;;;5.77;;
12788;SDS011;6458;42.710;23.192;2023-02-28T19:08:55;8.43;;;6.67;;
12788;SDS011;6458;42.710;23.192;2023-02-28T19:11:22;6.43;;;5.73;;
12788;SDS011;6458;42.710;23.192;2023-02-28T19:13:49;6.37;;;5.73;;
12788;SDS011;6458;42.710;23.192;2023-02-28T19:16:17;6.13;;;5.60;;
12788;SDS011;6458;42.710;23.192;2023-02-28T19:18:44;6.70;;;6.10;;
12788;SDS011;6458;42.710;23.192;2023-02-28T19:21:13;8.93;;;6.33;;
12788;SDS011;6458;42.710;23.192;2023-02-28T19:23:40;9.00;;;7.50;;
12788;SDS011;6458;42.710;23.192;2023-02-28T19:26:07;9.93;;;7.67;;
12788;SDS011;6458;42.710;23.192;2023-02-28T19:28:34;9.50;;;7.17;;
12788;SDS011;6458;42.710;23.192;2023-02-28T19:31:02;6.67;;;6.00;;
12788;SDS011;6458;42.710;23.192;2023-02-28T19:33:29;6.77;;;5.97;;
12788;SDS011;6458;42.710;23.192;2023-02-28T19:35:58;6.90;;;5.17;;
12788;SDS011;6458;42.710;23.192;2023-02-28T19:38:26;10.47;;;7.27;;
12788;SDS011;6458;42.710;23.192;2023-02-28T19:40:58;7.53;;;6.77;;
12788;SDS011;6458;42.710;23.192;2023-02-28T19:43:25;8.37;;;7.57;;
12788;SDS011;6458;42.710;23.192;2023-02-28T19:45:52;9.23;;;6.83;;
12788;SDS011;6458;42.710;23.192;2023-02-28T19:48:19;9.50;;;7.47;;
12788;SDS011;6458;42.710;23.192;2023-02-28T19:50:49;11.20;;;8.27;;
12788;SDS011;6458;42.710;23.192;2023-02-28T19:53:16;6.07;;;5.47;;
12788;SDS011;6458;42.710;23.192;2023-02-28T19:55:45;6.87;;;6.13;;
12788;SDS011;6458;42.710;23.192;2023-02-28T19:58:11;7.07;;;6.37;;
12788;SDS011;6458;42.710;23.192;2023-02-28T20:03:48;6.03;;;5.43;;